Dubuque Regional Airport Dubuque US
ICAO: KDBQ
IATA: DBQ
Category: Large
Scheduled Services: Yes

Elevation: 1077 ft
TransAlt. 18000 ft.

Airport Communications:
ATIS:127.25
CHICAGO CNTR:127
CTAF:119.5
GND:121.8
FORT DODGE RDO:122.05
TWR:119.5
UNICOM:122.95

KDBQ Zoom In..

Runways:

(A) RW 13 length 6502 ft width 100 ft
---- / hdg 132

(B) RW 18 length 6327 ft width 150 ft
---- / hdg 177

(C) RW 31 length 6502 ft width 100 ft
ILS 108.70 / hdg 312

(D) RW 36 length 6327 ft width 150 ft
ILS 110.90 / hdg 357

Location; KDBQ
Day. 16 / Time. 17.53 Zulu
* Altimeter: 30.03
* Temperature: 27° c. 80.6°f.
* Wind from: 330° Speed 11 kn.
Dewpoint: 18° c.
Visibility: 10 Statute Miles.
Clouds: Clear (automated report).

KDBQ 161753Z 33011KT 10SM CLR 27/18 A3003 RMK AO2 SLP164 T02670178 10272 20233 50004


Wind From 330°
Speed 11 kn.

 
 
jpsmedia.com for Web Design worldairports.se 2018   terms of use